createdAt,value
2019-06-27T00:01:40.514Z,48.50
2019-06-27T00:04:09.058Z,48.50
2019-06-27T00:06:37.746Z,48.40
2019-06-27T00:09:08.066Z,48.40
2019-06-27T00:11:36.326Z,48.40
2019-06-27T00:14:04.751Z,48.40
2019-06-27T00:16:33.028Z,48.40
2019-06-27T00:19:01.305Z,48.40
2019-06-27T00:21:29.569Z,48.30
2019-06-27T00:23:57.831Z,48.30
2019-06-27T00:26:26.099Z,48.30
2019-06-27T00:28:54.360Z,48.20
2019-06-27T00:31:22.629Z,48.20
2019-06-27T00:33:50.897Z,48.20
2019-06-27T00:36:19.192Z,48.10
2019-06-27T00:38:47.485Z,48.10
2019-06-27T00:41:15.809Z,48.10
2019-06-27T00:43:44.065Z,48.10
2019-06-27T00:46:12.342Z,48.00
2019-06-27T00:48:40.605Z,48.00
2019-06-27T00:51:08.941Z,48.00
2019-06-27T00:53:37.177Z,48.00
2019-06-27T00:56:05.447Z,47.90
2019-06-27T00:58:33.702Z,47.90
2019-06-27T01:01:02.282Z,47.90
2019-06-27T01:03:30.546Z,47.90
2019-06-27T01:05:58.786Z,47.80
2019-06-27T01:08:27.059Z,47.90
2019-06-27T01:10:55.342Z,47.80
2019-06-27T01:13:23.597Z,47.80
2019-06-27T01:15:51.846Z,47.70
2019-06-27T01:18:20.120Z,47.70
2019-06-27T01:20:48.365Z,47.70
2019-06-27T01:23:16.643Z,47.70
2019-06-27T01:25:44.978Z,47.70
2019-06-27T01:28:13.272Z,47.70
2019-06-27T01:30:41.522Z,47.60
2019-06-27T01:33:09.809Z,47.60
2019-06-27T01:35:38.053Z,47.60
2019-06-27T01:38:06.322Z,47.60
2019-06-27T01:40:34.634Z,47.60
2019-06-27T01:43:02.900Z,47.60
2019-06-27T01:45:49.082Z,47.60
2019-06-27T01:48:17.427Z,47.50
2019-06-27T01:50:45.669Z,47.50
2019-06-27T01:53:13.913Z,47.50
2019-06-27T01:55:42.178Z,47.50
2019-06-27T01:58:10.421Z,47.40
2019-06-27T02:00:38.670Z,47.50
2019-06-27T02:03:06.955Z,47.40
2019-06-27T02:05:35.285Z,47.40
2019-06-27T02:08:03.777Z,47.40
2019-06-27T02:10:32.109Z,47.40
2019-06-27T02:13:00.355Z,47.30
2019-06-27T02:15:28.630Z,47.30
2019-06-27T02:17:56.962Z,47.30
2019-06-27T02:20:25.208Z,47.40
2019-06-27T02:22:53.474Z,47.90
2019-06-27T02:25:21.722Z,47.30
2019-06-27T02:28:03.066Z,47.20
2019-06-27T02:30:26.074Z,47.20
2019-06-27T02:32:54.421Z,47.20
2019-06-27T02:35:22.690Z,47.10
2019-06-27T02:37:50.934Z,47.10
2019-06-27T02:40:19.442Z,47.10
2019-06-27T02:42:47.690Z,47.10
2019-06-27T02:45:15.949Z,47.10
2019-06-27T02:47:44.218Z,47.10
2019-06-27T02:50:12.475Z,47.10
2019-06-27T02:52:40.741Z,47.10
2019-06-27T02:55:09.048Z,47.10
2019-06-27T02:57:37.310Z,47.20
2019-06-27T03:00:06.934Z,47.10
2019-06-27T03:02:36.067Z,47.10
2019-06-27T03:05:07.717Z,47.00
2019-06-27T03:07:36.000Z,47.00
2019-06-27T03:10:07.145Z,47.00
2019-06-27T03:12:35.402Z,47.10
2019-06-27T03:15:07.703Z,47.00
2019-06-27T03:17:35.958Z,47.00
2019-06-27T03:20:07.462Z,47.00
2019-06-27T03:22:35.733Z,47.10
2019-06-27T03:25:04.279Z,47.10
2019-06-27T03:27:32.600Z,47.10
2019-06-27T03:30:00.871Z,47.10
2019-06-27T03:32:29.359Z,47.10
2019-06-27T03:34:57.620Z,47.10
2019-06-27T03:37:25.866Z,47.10
2019-06-27T03:39:54.131Z,47.10
2019-06-27T03:42:22.375Z,47.00
2019-06-27T03:44:50.749Z,47.00
2019-06-27T03:47:19.136Z,47.00
2019-06-27T03:49:47.427Z,47.00
2019-06-27T03:52:15.704Z,46.90
2019-06-27T03:54:44.137Z,47.00
2019-06-27T03:57:12.447Z,47.00
2019-06-27T03:59:40.728Z,46.90
2019-06-27T04:02:09.006Z,46.90
2019-06-27T04:04:37.251Z,46.90
2019-06-27T04:07:05.835Z,46.90
2019-06-27T04:09:34.116Z,46.90
2019-06-27T04:12:02.466Z,46.90
2019-06-27T04:14:30.907Z,46.90
2019-06-27T04:16:59.222Z,46.90
2019-06-27T04:19:27.733Z,46.90
2019-06-27T04:21:56.006Z,47.00
2019-06-27T04:24:24.305Z,46.90
2019-06-27T04:26:52.586Z,46.90
2019-06-27T04:29:32.660Z,46.90
2019-06-27T04:31:50.841Z,47.50
2019-06-27T04:34:20.167Z,46.80
2019-06-27T04:36:48.738Z,46.80
2019-06-27T04:39:16.999Z,46.80
2019-06-27T04:41:45.269Z,46.80
2019-06-27T04:44:13.505Z,46.80
2019-06-27T04:46:41.778Z,46.80
2019-06-27T04:49:13.435Z,46.70
2019-06-27T04:51:40.022Z,46.70
2019-06-27T04:54:08.338Z,46.70
2019-06-27T04:56:36.606Z,46.70
2019-06-27T04:59:04.853Z,46.70
2019-06-27T05:01:33.127Z,46.70
2019-06-27T05:04:01.479Z,46.80
2019-06-27T05:06:29.791Z,46.80
2019-06-27T05:08:58.077Z,46.70
2019-06-27T05:11:26.477Z,46.70
2019-06-27T05:13:54.745Z,46.70
2019-06-27T05:16:23.418Z,46.70
2019-06-27T05:18:51.693Z,46.70
2019-06-27T05:21:19.928Z,46.70
2019-06-27T05:23:48.195Z,46.70
2019-06-27T05:26:16.442Z,46.60
2019-06-27T05:28:44.715Z,46.70
2019-06-27T05:31:12.969Z,46.70
2019-06-27T05:33:41.242Z,46.60
2019-06-27T05:36:09.857Z,46.70
2019-06-27T05:38:38.193Z,46.60
2019-06-27T05:41:06.532Z,46.60
2019-06-27T05:43:35.078Z,47.20
2019-06-27T05:46:03.337Z,46.50
2019-06-27T05:48:31.938Z,46.50
2019-06-27T05:51:00.240Z,46.60
2019-06-27T05:53:28.561Z,46.50
2019-06-27T05:55:56.823Z,46.50
2019-06-27T05:58:25.101Z,46.50
2019-06-27T06:00:53.456Z,46.50
2019-06-27T06:03:21.715Z,46.40
2019-06-27T06:05:50.054Z,47.00
2019-06-27T06:08:18.307Z,46.40
2019-06-27T06:10:46.569Z,46.40
2019-06-27T06:13:14.812Z,46.40
2019-06-27T06:15:43.087Z,46.40
2019-06-27T06:18:11.413Z,46.40
2019-06-27T06:20:39.944Z,46.30
2019-06-27T06:23:08.186Z,46.30
2019-06-27T06:25:39.090Z,46.30
2019-06-27T06:28:07.341Z,46.30
2019-06-27T06:30:44.416Z,46.20
2019-06-27T06:33:05.583Z,46.20
2019-06-27T06:35:33.956Z,46.20
2019-06-27T06:38:02.301Z,46.20
2019-06-27T06:40:30.595Z,46.20
2019-06-27T06:43:00.628Z,46.10
2019-06-27T06:45:28.857Z,46.10
2019-06-27T06:47:57.120Z,46.10
2019-06-27T06:50:25.368Z,46.20
2019-06-27T06:52:53.729Z,46.20
2019-06-27T06:55:22.010Z,46.10
2019-06-27T06:57:50.256Z,46.10
2019-06-27T07:00:18.555Z,46.00
2019-06-27T07:02:46.877Z,46.10
2019-06-27T07:05:15.481Z,46.10
2019-06-27T07:07:43.745Z,46.00
2019-06-27T07:10:11.994Z,46.00
2019-06-27T07:12:40.248Z,46.00
2019-06-27T07:15:08.582Z,46.00
2019-06-27T07:17:36.847Z,45.90
2019-06-27T07:20:05.561Z,45.90
2019-06-27T07:22:34.136Z,45.90
2019-06-27T07:25:02.590Z,45.90
2019-06-27T07:27:31.065Z,45.90
2019-06-27T07:29:59.312Z,45.90
2019-06-27T07:32:27.556Z,46.00
2019-06-27T07:34:55.829Z,45.90
2019-06-27T07:37:24.078Z,45.80
2019-06-27T07:39:52.401Z,45.80
2019-06-27T07:42:20.719Z,45.90
2019-06-27T07:44:48.981Z,45.90
2019-06-27T07:47:17.332Z,45.80
2019-06-27T07:49:45.610Z,45.80
2019-06-27T07:52:13.893Z,45.80
2019-06-27T07:54:42.164Z,46.40
2019-06-27T07:57:10.458Z,45.80
2019-06-27T07:59:38.837Z,45.80
2019-06-27T08:02:07.080Z,45.80
2019-06-27T08:04:35.609Z,45.90
2019-06-27T08:07:03.890Z,45.90
2019-06-27T08:09:32.139Z,45.90
2019-06-27T08:12:00.419Z,45.90
2019-06-27T08:14:28.658Z,45.90
2019-06-27T08:16:56.927Z,45.90
2019-06-27T08:19:25.194Z,45.90
2019-06-27T08:21:53.461Z,46.00
2019-06-27T08:24:21.717Z,46.00
2019-06-27T08:26:50.090Z,46.00
2019-06-27T08:29:18.337Z,46.00
2019-06-27T08:31:51.548Z,46.00
2019-06-27T08:34:16.687Z,46.00
2019-06-27T08:36:44.998Z,46.00
2019-06-27T08:39:13.321Z,46.10
2019-06-27T08:41:41.590Z,46.10
2019-06-27T08:44:09.969Z,46.10
2019-06-27T08:46:38.220Z,46.00
2019-06-27T08:49:06.488Z,46.00
2019-06-27T08:51:34.729Z,46.00
2019-06-27T08:54:03.029Z,46.10
2019-06-27T08:56:31.273Z,46.20
2019-06-27T08:58:59.541Z,46.20
2019-06-27T09:01:27.902Z,46.10
2019-06-27T09:03:56.483Z,46.20
2019-06-27T09:06:24.729Z,46.20
2019-06-27T09:08:53.016Z,46.20
2019-06-27T09:11:21.295Z,46.20
2019-06-27T09:13:49.655Z,46.20
2019-06-27T09:16:17.932Z,46.30
2019-06-27T09:18:46.198Z,46.30
2019-06-27T09:21:14.526Z,46.30
2019-06-27T09:23:42.769Z,46.90
2019-06-27T09:26:11.080Z,46.30
2019-06-27T09:28:39.341Z,46.30
2019-06-27T09:31:07.900Z,46.30
2019-06-27T09:33:36.160Z,46.30
2019-06-27T09:36:04.970Z,46.30
2019-06-27T09:38:33.237Z,46.30
2019-06-27T09:41:01.557Z,46.40
2019-06-27T09:43:29.835Z,46.40
2019-06-27T09:45:58.903Z,47.00
2019-06-27T09:48:27.229Z,46.40
2019-06-27T09:50:55.725Z,46.40
2019-06-27T09:53:24.330Z,46.40
2019-06-27T09:55:52.590Z,46.50
2019-06-27T09:58:20.862Z,46.50
2019-06-27T10:00:49.436Z,46.50
2019-06-27T10:03:17.721Z,46.50
2019-06-27T10:05:46.001Z,46.50
2019-06-27T10:08:14.248Z,46.50
2019-06-27T10:10:42.497Z,46.50
2019-06-27T10:13:10.766Z,46.50
2019-06-27T10:15:39.025Z,46.50
2019-06-27T10:18:07.298Z,46.60
2019-06-27T10:20:35.622Z,46.50
2019-06-27T10:23:03.881Z,46.60
2019-06-27T10:25:33.453Z,46.50
2019-06-27T10:28:01.757Z,46.50
2019-06-27T10:30:30.030Z,46.50
2019-06-27T10:33:00.307Z,46.50
2019-06-27T10:35:28.514Z,46.50
2019-06-27T10:37:56.787Z,46.50
2019-06-27T10:40:25.175Z,46.50
2019-06-27T10:42:53.558Z,46.50
2019-06-27T10:45:21.851Z,46.50
2019-06-27T10:47:50.166Z,46.50
2019-06-27T10:50:18.477Z,46.50
2019-06-27T10:52:46.775Z,46.50
2019-06-27T10:55:15.048Z,46.50
2019-06-27T10:57:43.333Z,46.40
2019-06-27T11:00:11.584Z,46.40
2019-06-27T11:02:40.214Z,46.50
2019-06-27T11:05:08.468Z,46.50
2019-06-27T11:07:39.743Z,46.40
2019-06-27T11:10:06.757Z,46.50
2019-06-27T11:12:35.030Z,46.50
2019-06-27T11:15:04.710Z,46.50
2019-06-27T11:17:33.066Z,46.50
2019-06-27T11:20:01.447Z,46.40
2019-06-27T11:22:29.706Z,46.50
2019-06-27T11:24:57.962Z,46.50
2019-06-27T11:27:27.390Z,46.40
2019-06-27T11:29:55.898Z,46.40
2019-06-27T11:32:24.254Z,46.40
2019-06-27T11:34:52.593Z,46.40
2019-06-27T11:37:20.883Z,46.40
2019-06-27T11:39:49.300Z,46.40
2019-06-27T11:42:17.541Z,46.40
2019-06-27T11:44:45.909Z,46.30
2019-06-27T11:47:14.506Z,46.30
2019-06-27T11:49:42.910Z,46.30
2019-06-27T11:52:11.197Z,46.30
2019-06-27T11:54:39.469Z,46.30
2019-06-27T11:57:07.743Z,46.40
2019-06-27T11:59:36.005Z,46.40
2019-06-27T12:02:04.288Z,46.30
2019-06-27T12:04:32.605Z,46.50
2019-06-27T12:07:00.862Z,45.50
2019-06-27T12:09:29.131Z,44.90
2019-06-27T12:11:57.478Z,44.20
2019-06-27T12:14:25.741Z,44.00
2019-06-27T12:16:53.985Z,43.80
2019-06-27T12:19:22.253Z,43.60
2019-06-27T12:21:50.513Z,44.20
2019-06-27T12:24:18.766Z,44.30
2019-06-27T12:26:47.030Z,44.70
2019-06-27T12:29:15.294Z,44.90
2019-06-27T12:31:43.558Z,45.00
2019-06-27T12:34:11.830Z,45.10
2019-06-27T12:36:40.094Z,45.30
2019-06-27T12:39:08.395Z,45.40
2019-06-27T12:41:36.726Z,45.60
2019-06-27T12:44:05.006Z,45.70
2019-06-27T12:46:33.264Z,46.00
2019-06-27T12:49:01.534Z,46.00
2019-06-27T12:51:29.838Z,46.20
2019-06-27T12:53:58.138Z,46.10
2019-06-27T12:56:26.461Z,46.40
2019-06-27T12:58:55.057Z,46.30
2019-06-27T13:01:23.305Z,46.30
2019-06-27T13:03:51.566Z,46.30
2019-06-27T13:06:19.841Z,46.30
2019-06-27T13:08:48.161Z,46.30
2019-06-27T13:11:16.438Z,46.40
2019-06-27T13:13:44.783Z,46.40
2019-06-27T13:16:13.122Z,46.70
2019-06-27T13:18:41.461Z,46.90
2019-06-27T13:21:09.737Z,46.80
2019-06-27T13:23:38.029Z,47.10
2019-06-27T13:26:06.334Z,47.40
2019-06-27T13:28:34.596Z,47.30
2019-06-27T13:31:02.865Z,47.50
2019-06-27T13:33:31.109Z,47.40
2019-06-27T13:35:59.412Z,47.70
2019-06-27T13:38:27.857Z,48.00
2019-06-27T13:40:56.212Z,47.60
2019-06-27T13:43:24.495Z,48.00
2019-06-27T13:45:52.796Z,48.90
2019-06-27T13:48:21.045Z,48.20
2019-06-27T13:50:49.332Z,48.40
2019-06-27T13:53:17.914Z,48.60
2019-06-27T13:55:46.184Z,48.80
2019-06-27T13:58:14.454Z,49.00
2019-06-27T14:00:46.593Z,49.20
2019-06-27T14:03:14.921Z,49.30
2019-06-27T14:05:43.168Z,49.00
2019-06-27T14:08:11.442Z,48.60
2019-06-27T14:10:39.692Z,48.60
2019-06-27T14:13:07.961Z,48.70
2019-06-27T14:15:36.209Z,49.00
2019-06-27T14:18:04.517Z,49.70
2019-06-27T14:20:32.764Z,49.90
2019-06-27T14:23:01.377Z,49.40
2019-06-27T14:25:29.933Z,48.90
2019-06-27T14:27:58.200Z,49.80
2019-06-27T14:30:26.529Z,49.90
2019-06-27T14:32:54.896Z,49.10
2019-06-27T14:35:23.137Z,49.50
2019-06-27T14:37:51.413Z,49.90
2019-06-27T14:40:19.665Z,49.30
2019-06-27T14:42:48.261Z,50.00
2019-06-27T14:45:16.506Z,49.40
2019-06-27T14:47:44.832Z,50.80
2019-06-27T14:50:13.409Z,49.60
2019-06-27T14:52:44.292Z,49.70
2019-06-27T14:55:12.602Z,49.50
2019-06-27T14:57:40.861Z,49.70
2019-06-27T15:00:09.310Z,50.00
2019-06-27T15:02:37.567Z,49.40
2019-06-27T15:05:06.443Z,49.60
2019-06-27T15:07:34.830Z,51.10
2019-06-27T15:10:04.754Z,50.00
2019-06-27T15:12:35.758Z,50.70
2019-06-27T15:15:03.053Z,52.10
2019-06-27T15:17:31.462Z,51.70
2019-06-27T15:19:59.739Z,52.70
2019-06-27T15:22:28.266Z,51.40
2019-06-27T15:24:57.020Z,51.90
2019-06-27T15:27:25.364Z,50.90
2019-06-27T15:29:53.669Z,51.20
2019-06-27T15:32:22.066Z,51.20
2019-06-27T15:34:50.338Z,50.30
2019-06-27T15:37:18.614Z,50.70
2019-06-27T15:39:46.941Z,50.70
2019-06-27T15:42:15.236Z,51.60
2019-06-27T15:44:43.517Z,50.40
2019-06-27T15:47:12.006Z,50.70
2019-06-27T15:49:40.295Z,50.80
2019-06-27T15:52:08.637Z,51.20
2019-06-27T15:54:36.920Z,51.30
2019-06-27T15:57:05.489Z,50.40
2019-06-27T15:59:33.755Z,50.50
2019-06-27T16:02:02.030Z,50.60
2019-06-27T16:04:34.209Z,50.10
2019-06-27T16:07:00.274Z,50.00
2019-06-27T16:09:28.657Z,49.80
2019-06-27T16:11:57.151Z,49.70
2019-06-27T16:14:25.424Z,49.70
2019-06-27T16:16:53.690Z,49.70
2019-06-27T16:19:22.043Z,49.60
2019-06-27T16:21:50.332Z,49.50
2019-06-27T16:24:18.610Z,49.50
2019-06-27T16:26:47.450Z,49.30
2019-06-27T16:29:15.794Z,49.40
2019-06-27T16:31:44.069Z,49.50
2019-06-27T16:34:12.332Z,49.40
2019-06-27T16:36:40.595Z,49.30
2019-06-27T16:39:08.842Z,49.50
2019-06-27T16:41:37.111Z,49.50
2019-06-27T16:44:05.453Z,49.40
2019-06-27T16:46:33.778Z,49.30
2019-06-27T16:49:02.079Z,49.30
2019-06-27T16:51:30.498Z,49.30
2019-06-27T16:53:58.770Z,49.30
2019-06-27T16:56:27.329Z,49.30
2019-06-27T16:58:55.608Z,49.30
2019-06-27T17:01:23.915Z,49.30
2019-06-27T17:03:52.182Z,46.90
2019-06-27T17:06:20.458Z,46.80
2019-06-27T17:08:48.730Z,46.30
2019-06-27T17:11:16.973Z,44.90
2019-06-27T17:13:45.235Z,44.80
2019-06-27T17:16:13.485Z,44.30
2019-06-27T17:18:44.040Z,44.10
2019-06-27T17:21:12.282Z,44.10
2019-06-27T17:23:40.545Z,43.70
2019-06-27T17:26:11.760Z,43.70
2019-06-27T17:28:38.784Z,43.60
2019-06-27T17:31:07.108Z,43.60
2019-06-27T17:33:35.730Z,43.60
2019-06-27T17:36:03.981Z,43.40
2019-06-27T17:38:32.383Z,43.00
2019-06-27T17:41:00.795Z,43.60
2019-06-27T17:43:29.065Z,42.90
2019-06-27T17:45:57.309Z,42.80
2019-06-27T17:48:25.607Z,42.90
2019-06-27T17:50:53.853Z,42.90
2019-06-27T17:53:22.122Z,42.90
2019-06-27T17:55:50.733Z,42.90
2019-06-27T17:58:18.971Z,43.00
2019-06-27T18:00:47.235Z,43.70
2019-06-27T18:03:15.486Z,43.80
2019-06-27T18:05:43.750Z,44.00
2019-06-27T18:08:12.090Z,44.10
2019-06-27T18:10:40.357Z,44.30
2019-06-27T18:13:08.699Z,44.50
2019-06-27T18:15:36.976Z,44.60
2019-06-27T18:18:05.256Z,44.60
2019-06-27T18:20:33.544Z,44.80
2019-06-27T18:23:01.874Z,44.80
2019-06-27T18:25:30.134Z,45.10
2019-06-27T18:27:58.650Z,45.30
2019-06-27T18:30:26.900Z,45.40
2019-06-27T18:32:55.300Z,45.50
2019-06-27T18:35:23.596Z,45.50
2019-06-27T18:37:52.015Z,45.40
2019-06-27T18:40:20.944Z,45.60
2019-06-27T18:42:49.429Z,45.70
2019-06-27T18:45:17.795Z,46.40
2019-06-27T18:47:46.465Z,45.90
2019-06-27T18:50:15.010Z,45.90
2019-06-27T18:52:43.510Z,46.00
2019-06-27T18:55:11.892Z,45.90
2019-06-27T18:57:40.145Z,46.00
2019-06-27T19:00:08.698Z,46.00
2019-06-27T19:02:36.930Z,46.10
2019-06-27T19:05:05.859Z,46.10
2019-06-27T19:07:44.961Z,46.10
2019-06-27T19:10:06.685Z,46.20
2019-06-27T19:12:35.011Z,46.20
2019-06-27T19:15:04.819Z,46.30
2019-06-27T19:17:33.072Z,46.40
2019-06-27T19:20:03.065Z,46.30
2019-06-27T19:22:49.478Z,46.40
2019-06-27T19:25:19.373Z,46.30
2019-06-27T19:27:47.636Z,46.40
2019-06-27T19:30:15.997Z,46.30
2019-06-27T19:32:44.334Z,46.40
2019-06-27T19:35:12.683Z,46.40
2019-06-27T19:37:40.928Z,46.40
2019-06-27T19:40:09.177Z,46.40
2019-06-27T19:42:37.440Z,46.50
2019-06-27T19:45:06.087Z,46.40
2019-06-27T19:47:34.384Z,46.50
2019-06-27T19:50:02.865Z,46.50
2019-06-27T19:52:31.138Z,46.50
2019-06-27T19:54:59.406Z,46.50
2019-06-27T19:57:27.754Z,46.60
2019-06-27T19:59:56.157Z,46.60
2019-06-27T20:02:24.397Z,46.70
2019-06-27T20:04:52.669Z,46.80
2019-06-27T20:07:20.914Z,46.80
2019-06-27T20:09:49.181Z,46.80
2019-06-27T20:12:17.520Z,47.30
2019-06-27T20:14:46.074Z,46.90
2019-06-27T20:17:14.336Z,46.90
2019-06-27T20:19:42.610Z,46.90
2019-06-27T20:22:10.849Z,47.00
2019-06-27T20:24:39.113Z,47.00
2019-06-27T20:27:07.411Z,46.90
2019-06-27T20:29:35.669Z,47.10
2019-06-27T20:32:03.914Z,47.00
2019-06-27T20:34:32.186Z,47.10
2019-06-27T20:37:00.430Z,47.00
2019-06-27T20:39:28.697Z,47.00
2019-06-27T20:41:57.222Z,47.00
2019-06-27T20:44:25.482Z,47.00
2019-06-27T20:46:54.017Z,47.00
2019-06-27T20:49:22.280Z,47.10
2019-06-27T20:51:50.551Z,46.90
2019-06-27T20:54:18.821Z,47.00
2019-06-27T20:56:47.073Z,47.00
2019-06-27T20:59:15.347Z,47.00
2019-06-27T21:01:43.624Z,47.00
2019-06-27T21:04:12.117Z,47.00
2019-06-27T21:06:40.395Z,47.00
2019-06-27T21:09:08.655Z,46.90
2019-06-27T21:11:36.925Z,46.90
2019-06-27T21:14:05.630Z,46.90
2019-06-27T21:16:33.882Z,46.80
2019-06-27T21:19:02.146Z,46.80
2019-06-27T21:21:30.497Z,46.70
2019-06-27T21:23:58.764Z,46.60
2019-06-27T21:26:27.096Z,46.60
2019-06-27T21:28:55.453Z,46.50
2019-06-27T21:31:23.748Z,46.50
2019-06-27T21:33:52.013Z,46.50
2019-06-27T21:36:20.279Z,46.50
2019-06-27T21:38:48.526Z,46.40
2019-06-27T21:41:19.096Z,46.20
2019-06-27T21:43:47.124Z,46.20
2019-06-27T21:46:15.402Z,46.20
2019-06-27T21:48:43.669Z,46.10
2019-06-27T21:51:11.909Z,46.00
2019-06-27T21:53:40.436Z,46.00
2019-06-27T21:56:08.749Z,46.00
2019-06-27T21:58:36.994Z,45.80
2019-06-27T22:01:05.297Z,45.60
2019-06-27T22:03:33.554Z,45.60
2019-06-27T22:06:01.844Z,45.50
2019-06-27T22:08:30.170Z,45.40
2019-06-27T22:10:58.441Z,45.30
2019-06-27T22:13:26.751Z,45.30
2019-06-27T22:15:55.018Z,45.30
2019-06-27T22:18:23.297Z,45.00
2019-06-27T22:20:51.545Z,45.00
2019-06-27T22:23:19.886Z,44.90
2019-06-27T22:25:48.428Z,44.80
2019-06-27T22:28:17.007Z,44.70
2019-06-27T22:30:45.486Z,44.60
2019-06-27T22:33:13.753Z,44.40
2019-06-27T22:35:41.993Z,44.20
2019-06-27T22:38:28.441Z,44.20
2019-06-27T22:41:14.933Z,44.10
2019-06-27T22:44:01.473Z,44.00
2019-06-27T22:46:48.170Z,44.00
2019-06-27T22:49:15.757Z,43.80
2019-06-27T22:52:01.716Z,43.70
2019-06-27T22:54:37.610Z,43.60
2019-06-27T22:57:05.957Z,43.40
2019-06-27T22:59:34.210Z,43.30
2019-06-27T23:02:02.507Z,43.20
2019-06-27T23:04:31.096Z,43.20
2019-06-27T23:06:59.361Z,43.00
2019-06-27T23:09:27.612Z,42.90
2019-06-27T23:11:55.990Z,42.90
2019-06-27T23:14:24.599Z,42.80
2019-06-27T23:16:52.902Z,42.60
2019-06-27T23:19:21.186Z,42.60
2019-06-27T23:21:49.474Z,42.50
2019-06-27T23:24:17.758Z,42.50
2019-06-27T23:26:46.013Z,42.30
2019-06-27T23:29:14.316Z,42.30
2019-06-27T23:31:42.585Z,42.10
2019-06-27T23:34:11.301Z,42.10
2019-06-27T23:36:39.565Z,42.10
2019-06-27T23:39:07.838Z,42.10
2019-06-27T23:41:36.099Z,42.00
2019-06-27T23:44:04.445Z,41.90
2019-06-27T23:46:42.487Z,41.90
2019-06-27T23:49:11.583Z,41.70
2019-06-27T23:51:39.854Z,41.60
2019-06-27T23:54:08.174Z,41.60
2019-06-27T23:56:36.939Z,41.50
2019-06-27T23:59:05.706Z,41.30
